Time;durP1;ratioP1;P1;durP2;ratioP2;P2;SDS_P1;SDS_P2;PMS_P1;PMS_P2;Temp;Humidity;BMP_temperature;BMP_pressure;BME280_temperature;BME280_humidity;BME280_pressure;Samples;Min_cycle;Max_cycle;Signal;HPM_P1;HPM_P2
2022/10/25 00:00:38;;;;;;;6.97;3.63;;;;;;;12.28;70.51;100582.06;4913814;29;20064;-71
2022/10/25 00:03:10;;;;;;;13.32;3.60;;;;;;;12.23;70.72;100592.50;4913705;29;20059;-71
2022/10/25 00:05:38;;;;;;;10.82;3.85;;;;;;;12.23;70.93;100583.59;4912870;29;20044;-70
2022/10/25 00:08:05;;;;;;;17.77;4.18;;;;;;;12.17;71.15;100590.50;4913913;29;20052;-70
2022/10/25 00:10:32;;;;;;;12.18;4.43;;;;;;;12.20;71.06;100587.47;4913715;29;20055;-71
2022/10/25 00:12:59;;;;;;;17.92;4.07;;;;;;;12.09;71.43;100593.22;4913104;29;20055;-72
2022/10/25 00:15:26;;;;;;;13.80;3.78;;;;;;;12.18;71.10;100584.13;4913352;29;20044;-71
2022/10/25 00:17:52;;;;;;;16.23;4.43;;;;;;;12.22;71.00;100580.06;4913983;29;20048;-71
2022/10/25 00:20:19;;;;;;;14.10;4.03;;;;;;;12.16;70.96;100583.47;4913378;29;20048;-67
2022/10/25 00:22:46;;;;;;;16.15;4.00;;;;;;;12.11;71.08;100586.69;4912192;29;20059;-71
2022/10/25 00:25:13;;;;;;;10.95;4.20;;;;;;;12.13;71.03;100581.09;4913547;29;20127;-71
2022/10/25 00:27:39;;;;;;;15.07;3.70;;;;;;;12.06;71.25;100583.66;4913345;29;20489;-71
2022/10/25 00:30:07;;;;;;;13.10;4.28;;;;;;;12.14;71.09;100590.84;4916775;29;20401;-70
2022/10/25 00:32:34;;;;;;;11.93;4.25;;;;;;;11.93;71.70;100591.41;4916510;29;20489;-71
2022/10/25 00:35:00;;;;;;;15.35;4.10;;;;;;;11.99;71.94;100596.13;4917052;29;20051;-71
2022/10/25 00:37:27;;;;;;;13.95;3.53;;;;;;;12.06;71.56;100594.41;4916180;29;20055;-69
2022/10/25 00:39:53;;;;;;;20.75;3.67;;;;;;;11.97;71.26;100586.53;4916709;29;20516;-71
2022/10/25 00:42:23;;;;;;;13.32;3.75;;;;;;;11.95;71.78;100589.41;4916908;29;20044;-71
2022/10/25 00:45:00;;;;;;;12.43;4.15;;;;;;;11.99;71.73;100592.59;4916134;29;20075;-71
2022/10/25 00:47:31;;;;;;;14.60;4.32;;;;;;;12.11;71.22;100588.53;4916443;29;20052;-71
2022/10/25 00:50:21;;;;;;;23.83;4.33;;;;;;;11.96;71.84;100588.38;4916662;29;20450;-70
2022/10/25 00:52:52;;;;;;;19.65;4.32;;;;;;;11.98;71.61;100596.28;4916467;29;20048;-71
2022/10/25 00:55:22;;;;;;;18.90;3.97;;;;;;;12.03;71.60;100591.22;4916654;29;20048;-71
2022/10/25 00:57:55;;;;;;;15.10;4.50;;;;;;;11.87;72.08;100587.59;4916360;29;20060;-71
2022/10/25 01:00:22;;;;;;;18.15;5.65;;;;;;;11.86;72.07;100596.66;4915536;29;20044;-71
2022/10/25 01:02:48;;;;;;;17.08;3.92;;;;;;;11.68;72.59;100585.25;4916305;29;20051;-71
2022/10/25 01:08:56;;;;;;;16.85;4.63;;;;;;;11.89;72.19;100587.41;4916038;29;20054;-69
2022/10/25 01:11:24;;;;;;;16.02;4.47;;;;;;;12.00;71.75;100587.03;4891433;29;20052;-71
2022/10/25 01:13:51;;;;;;;13.50;4.13;;;;;;;11.86;72.00;100588.59;4878420;29;20443;-71
2022/10/25 01:16:27;;;;;;;13.60;4.25;;;;;;;12.04;71.58;100583.00;4878026;29;20536;-71
2022/10/25 01:19:10;;;;;;;19.25;4.10;;;;;;;11.92;71.81;100590.59;4878712;29;20045;-71
2022/10/25 01:21:49;;;;;;;15.40;4.38;;;;;;;12.00;71.63;100581.66;4877817;29;20049;-69
2022/10/25 01:24:55;;;;;;;19.35;3.85;;;;;;;11.93;71.96;100584.22;4896585;29;20044;-71
2022/10/25 01:27:43;;;;;;;16.52;4.20;;;;;;;11.90;72.02;100589.94;4896855;29;20446;-70
2022/10/25 01:30:22;;;;;;;15.68;4.22;;;;;;;12.01;71.65;100593.28;4889762;29;20428;-71
2022/10/25 01:33:07;;;;;;;19.50;4.45;;;;;;;12.09;71.47;100594.06;4896363;29;20059;-71
2022/10/25 01:36:13;;;;;;;22.13;4.63;;;;;;;12.00;71.68;100588.88;4897040;29;20052;-70
2022/10/25 01:39:03;;;;;;;17.48;4.43;;;;;;;12.05;71.57;100594.59;4891229;29;20045;-71
2022/10/25 01:41:40;;;;;;;16.25;4.20;;;;;;;11.95;71.71;100586.72;4896178;29;20501;-71
2022/10/25 01:44:27;;;;;;;16.58;3.97;;;;;;;12.24;70.78;100586.09;4877132;29;20049;-69
2022/10/25 01:47:03;;;;;;;12.77;4.15;;;;;;;12.26;70.71;100589.47;4879084;29;20052;-69
2022/10/25 01:49:43;;;;;;;12.13;3.92;;;;;;;12.21;71.17;100580.22;4876914;29;20501;-70
2022/10/25 01:52:09;;;;;;;11.10;4.18;;;;;;;11.97;71.62;100581.16;4877966;29;20057;-70
2022/10/25 01:54:36;;;;;;;18.67;4.38;;;;;;;12.30;70.58;100577.34;4877726;29;20068;-71
2022/10/25 01:57:14;;;;;;;15.82;4.38;;;;;;;12.22;71.09;100581.94;4878117;29;20052;-70
2022/10/25 01:59:55;;;;;;;31.42;5.03;;;;;;;12.19;71.17;100580.41;4877025;29;20041;-71
2022/10/25 02:02:35;;;;;;;13.00;3.80;;;;;;;12.10;71.23;100579.59;4877045;29;20053;-72
2022/10/25 02:05:23;;;;;;;19.50;4.78;;;;;;;12.22;70.81;100572.00;4878064;29;20053;-71
2022/10/25 02:08:02;;;;;;;9.77;3.83;;;;;;;12.23;70.59;100581.75;4893041;29;20055;-69
2022/10/25 02:10:39;;;;;;;14.68;4.65;;;;;;;12.35;70.27;100577.66;4915685;29;20058;-70
2022/10/25 02:13:25;;;;;;;17.55;4.07;;;;;;;12.33;70.38;100579.69;4912821;29;20083;-72
2022/10/25 02:16:08;;;;;;;15.98;3.88;;;;;;;12.23;70.37;100592.50;4914682;29;20052;-71
2022/10/25 02:18:38;;;;;;;14.23;3.47;;;;;;;12.18;70.71;100584.13;4914631;29;20040;-71
2022/10/25 02:21:05;;;;;;;16.13;3.83;;;;;;;12.31;70.29;100581.69;4915482;29;20052;-71
2022/10/25 02:23:34;;;;;;;20.38;5.03;;;;;;;12.37;69.81;100589.06;4915914;29;20055;-70
2022/10/25 02:26:04;;;;;;;20.52;4.25;;;;;;;12.34;70.12;100584.03;4915586;29;20048;-71
2022/10/25 02:28:34;;;;;;;16.25;4.00;;;;;;;12.49;69.55;100591.41;4906669;29;20048;-71
2022/10/25 02:31:01;;;;;;;13.10;3.67;;;;;;;12.38;69.66;100590.78;4912575;29;20493;-71
2022/10/25 02:33:28;;;;;;;18.98;3.65;;;;;;;12.40;69.65;100596.78;4914270;29;20063;-70
2022/10/25 02:36:08;;;;;;;10.98;3.33;;;;;;;12.30;69.80;100596.16;4913679;29;20048;-70
2022/10/25 02:38:35;;;;;;;12.93;3.75;;;;;;;12.57;68.94;100591.34;4915253;29;20048;-71
2022/10/25 02:41:03;;;;;;;20.02;4.40;;;;;;;12.10;70.30;100590.34;4914596;29;20048;-71
2022/10/25 02:43:29;;;;;;;16.80;3.88;;;;;;;12.27;69.92;100595.69;4914671;29;20520;-71
2022/10/25 02:45:56;;;;;;;17.65;4.50;;;;;;;12.36;69.40;100592.78;4914462;29;20405;-71
2022/10/25 02:48:22;;;;;;;16.88;3.67;;;;;;;12.11;70.32;100596.59;4914500;29;20047;-71
2022/10/25 02:50:49;;;;;;;12.05;3.85;;;;;;;12.26;69.96;100592.16;4914172;29;20393;-71
2022/10/25 02:53:15;;;;;;;17.25;3.85;;;;;;;12.33;69.35;100590.44;4914471;29;20051;-71
2022/10/25 02:55:42;;;;;;;12.10;3.78;;;;;;;12.29;69.85;100599.03;4914504;29;20044;-71
2022/10/25 02:58:08;;;;;;;14.93;3.90;;;;;;;12.24;69.73;100594.16;4914280;29;20100;-72
2022/10/25 03:00:35;;;;;;;14.80;4.10;;;;;;;12.20;69.76;100603.59;4914704;29;20051;-71
2022/10/25 03:03:01;;;;;;;13.10;3.55;;;;;;;12.13;70.11;100600.78;4913638;29;20464;-71
2022/10/25 03:05:28;;;;;;;15.93;3.92;;;;;;;12.24;69.43;100607.63;4913610;29;20044;-71
2022/10/25 03:07:54;;;;;;;16.08;3.83;;;;;;;12.10;70.19;100611.03;4914199;29;20044;-71
2022/10/25 03:10:20;;;;;;;12.95;3.35;;;;;;;12.25;69.55;100603.94;4914708;29;20052;-71
2022/10/25 03:12:47;;;;;;;12.52;3.72;;;;;;;12.26;69.41;100607.47;4909093;29;20048;-71
2022/10/25 03:15:14;;;;;;;18.30;3.40;;;;;;;12.12;69.91;100615.22;4877731;29;20565;-71
2022/10/25 03:17:40;;;;;;;12.73;3.40;;;;;;;12.16;69.88;100618.41;4876571;29;20049;-70
2022/10/25 03:20:07;;;;;;;12.82;3.17;;;;;;;12.19;69.58;100626.13;4877822;29;20053;-71
2022/10/25 03:22:34;;;;;;;14.13;3.72;;;;;;;12.29;69.30;100632.16;4877518;29;20056;-71
2022/10/25 03:25:00;;;;;;;13.82;3.13;;;;;;;12.26;69.24;100627.13;4876856;29;20057;-69
2022/10/25 03:27:27;;;;;;;14.93;4.18;;;;;;;12.20;69.50;100627.81;4879391;29;20052;-71
2022/10/25 03:29:53;;;;;;;15.13;3.63;;;;;;;12.26;69.24;100627.13;4888399;29;20053;-71
2022/10/25 03:32:20;;;;;;;18.70;4.22;;;;;;;12.20;69.70;100627.81;4860125;29;20100;-72
2022/10/25 03:34:46;;;;;;;17.77;3.05;;;;;;;12.34;69.33;100635.16;4876792;29;20056;-70
2022/10/25 03:37:12;;;;;;;13.73;3.67;;;;;;;12.22;69.48;100631.19;4876307;29;20049;-70
2022/10/25 03:39:39;;;;;;;13.95;3.58;;;;;;;12.40;69.04;100631.78;4886376;29;20052;-71
2022/10/25 03:42:05;;;;;;;12.98;3.50;;;;;;;12.29;69.44;100634.00;4895691;29;20052;-71
2022/10/25 03:44:32;;;;;;;10.55;3.03;;;;;;;12.31;69.39;100632.81;4895395;29;20044;-70
2022/10/25 03:46:58;;;;;;;9.57;3.47;;;;;;;12.30;69.26;100638.38;4895094;29;20057;-71
2022/10/25 03:49:25;;;;;;;9.23;3.13;;;;;;;12.19;69.33;100638.75;4895224;29;20052;-71
2022/10/25 03:51:51;;;;;;;10.25;3.22;;;;;;;12.36;68.83;100638.53;4894447;29;20418;-71
2022/10/25 03:54:25;;;;;;;11.13;2.85;;;;;;;12.50;67.91;100641.50;4894623;29;20052;-71
2022/10/25 03:56:54;;;;;;;12.68;3.42;;;;;;;12.22;68.75;100647.31;4894769;29;20057;-71
2022/10/25 03:59:21;;;;;;;10.00;3.33;;;;;;;12.38;68.16;100659.84;4894635;29;20044;-70
2022/10/25 04:01:47;;;;;;;10.50;3.10;;;;;;;12.37;68.25;100648.25;4894664;29;20051;-71
2022/10/25 04:04:14;;;;;;;12.77;3.47;;;;;;;12.33;68.57;100659.56;4898767;29;20052;-71
2022/10/25 04:06:40;;;;;;;10.68;3.20;;;;;;;12.39;68.16;100659.69;4899440;29;20049;-70
2022/10/25 04:09:07;;;;;;;12.48;2.83;;;;;;;12.40;67.87;100656.00;4902899;29;20049;-70
2022/10/25 04:11:33;;;;;;;7.90;2.85;;;;;;;12.46;67.75;100661.69;4880391;29;20053;-71
2022/10/25 04:14:00;;;;;;;10.65;2.60;;;;;;;12.37;67.92;100664.41;4888811;29;20052;-71
2022/10/25 04:16:27;;;;;;;8.10;2.50;;;;;;;12.41;67.74;100660.34;4899232;29;20049;-71
2022/10/25 04:18:54;;;;;;;10.15;2.90;;;;;;;12.48;67.33;100662.34;4882127;29;20048;-71
2022/10/25 04:21:20;;;;;;;12.65;2.60;;;;;;;12.36;67.49;100662.72;4898402;29;20056;-71
2022/10/25 04:23:48;;;;;;;9.68;2.63;;;;;;;12.41;67.63;100651.44;4898664;29;20051;-71
2022/10/25 04:26:19;;;;;;;9.68;2.70;;;;;;;12.31;67.93;100657.00;4899050;29;20055;-71
2022/10/25 04:28:50;;;;;;;7.28;2.78;;;;;;;12.41;67.53;100660.34;4899032;29;20644;-71
2022/10/25 04:31:17;;;;;;;13.65;2.80;;;;;;;12.26;68.16;100658.56;4898649;29;20056;-71
2022/10/25 04:33:50;;;;;;;8.98;2.33;;;;;;;12.21;68.31;100660.91;4898677;29;20446;-71
2022/10/25 04:36:17;;;;;;;19.88;3.67;;;;;;;12.33;67.84;100662.25;4898461;29;20045;-71
2022/10/25 04:38:50;;;;;;;9.98;2.42;;;;;;;12.20;68.40;100662.78;4898793;29;20512;-72
2022/10/25 04:41:17;;;;;;;10.20;2.70;;;;;;;12.43;67.80;100656.66;4898426;29;20052;-69
2022/10/25 04:43:44;;;;;;;9.65;2.63;;;;;;;12.33;67.98;100659.56;4895596;29;20044;-71
2022/10/25 04:46:12;;;;;;;11.85;3.20;;;;;;;12.27;68.15;100663.75;4898855;29;20052;-71
2022/10/25 04:48:40;;;;;;;10.90;2.45;;;;;;;12.05;68.63;100654.59;4896416;29;20048;-70
2022/10/25 04:51:07;;;;;;;10.88;2.85;;;;;;;12.04;69.07;100657.47;4897902;29;20052;-72
2022/10/25 04:53:34;;;;;;;11.43;2.60;;;;;;;12.02;69.18;100657.63;4895127;29;20064;-72
2022/10/25 04:56:08;;;;;;;6.03;2.05;;;;;;;12.13;68.62;100665.31;4879514;29;20060;-70
2022/10/25 04:58:35;;;;;;;8.90;2.58;;;;;;;12.00;69.27;100664.16;4879311;29;20409;-71
2022/10/25 05:01:08;;;;;;;8.52;3.00;;;;;;;11.95;69.87;100661.16;4885757;29;20060;-71
2022/10/25 05:03:34;;;;;;;9.38;2.97;;;;;;;11.90;70.03;100659.81;4897698;29;20462;-71
2022/10/25 05:06:13;;;;;;;9.90;2.85;;;;;;;11.97;69.71;100657.31;4898321;29;20056;-71
2022/10/25 05:08:42;;;;;;;15.35;3.63;;;;;;;11.88;70.34;100666.38;4901608;29;20067;-71
2022/10/25 05:11:10;;;;;;;10.80;3.22;;;;;;;11.86;70.34;100666.56;4898220;29;20044;-71
2022/10/25 05:13:38;;;;;;;13.82;3.03;;;;;;;11.76;70.42;100667.72;4895960;29;20067;-71
2022/10/25 05:16:05;;;;;;;15.93;2.63;;;;;;;11.77;70.52;100667.56;4897545;29;20056;-71
2022/10/25 05:18:33;;;;;;;8.18;2.53;;;;;;;11.71;70.27;100672.78;4883972;29;20056;-70
2022/10/25 05:21:03;;;;;;;20.58;3.17;;;;;;;11.81;69.68;100668.91;4879095;29;20048;-71
2022/10/25 05:23:31;;;;;;;10.20;2.20;;;;;;;11.75;69.96;100661.50;4878998;29;20049;-72
2022/10/25 05:26:12;;;;;;;9.25;2.60;;;;;;;11.62;70.26;100662.00;4878906;29;20049;-71
2022/10/25 05:28:40;;;;;;;10.55;2.05;;;;;;;11.52;70.62;100665.84;4879170;29;20408;-71
2022/10/25 05:31:21;;;;;;;8.25;2.30;;;;;;;11.66;70.16;100673.28;4878547;29;20049;-71
2022/10/25 05:33:50;;;;;;;11.88;1.98;;;;;;;11.77;69.79;100677.47;4879318;29;20049;-70
2022/10/25 05:36:17;;;;;;;9.02;2.35;;;;;;;11.74;69.80;100678.66;4878275;29;20049;-71
2022/10/25 05:38:43;;;;;;;9.65;2.50;;;;;;;11.76;69.56;100679.34;4878756;29;20053;-69
2022/10/25 05:41:12;;;;;;;14.60;3.45;;;;;;;11.78;69.53;100681.84;4879080;29;20041;-72
2022/10/25 05:43:39;;;;;;;7.13;2.42;;;;;;;11.68;69.95;100682.84;4879302;29;20048;-71
2022/10/25 05:46:09;;;;;;;7.05;3.10;;;;;;;11.74;69.62;100691.25;4878762;29;20406;-71
2022/10/25 05:48:36;;;;;;;16.40;3.58;;;;;;;11.67;69.91;100691.09;4878519;29;20132;-70
2022/10/25 05:51:30;;;;;;;8.63;3.00;;;;;;;11.62;69.92;100693.38;4878834;29;20057;-71
2022/10/25 05:54:13;;;;;;;14.20;2.90;;;;;;;11.72;69.74;100699.47;4870714;29;20076;-71
2022/10/25 05:56:41;;;;;;;8.80;2.05;;;;;;;11.73;69.60;100698.47;4878193;29;20049;-71
2022/10/25 05:59:13;;;;;;;8.45;2.30;;;;;;;11.87;69.11;100703.19;4877658;29;20048;-71
2022/10/25 06:01:44;;;;;;;9.70;2.55;;;;;;;11.64;69.81;100710.19;4878139;29;20479;-71
2022/10/25 06:04:12;;;;;;;6.88;2.20;;;;;;;11.92;69.12;100710.72;4875734;29;20391;-71
2022/10/25 06:06:40;;;;;;;10.25;2.00;;;;;;;11.63;69.77;100705.84;4878792;29;20045;-71
2022/10/25 06:09:07;;;;;;;8.65;2.65;;;;;;;11.76;69.44;100708.91;4907131;29;20076;-71
2022/10/25 06:11:34;;;;;;;9.48;2.20;;;;;;;11.89;69.28;100728.03;4915806;29;20056;-71
2022/10/25 06:14:00;;;;;;;10.50;2.10;;;;;;;12.00;68.84;100729.53;4915260;29;20072;-71
2022/10/25 06:16:27;;;;;;;13.13;2.67;;;;;;;11.93;69.02;100734.78;4915728;29;20044;-71
2022/10/25 06:18:54;;;;;;;11.30;2.60;;;;;;;11.91;68.92;100726.03;4915262;29;20054;-70
2022/10/25 06:21:23;;;;;;;15.70;2.58;;;;;;;11.97;68.85;100731.72;4916016;29;20063;-71
2022/10/25 06:23:50;;;;;;;8.27;2.08;;;;;;;11.92;68.89;100733.06;4915653;29;20043;-71
2022/10/25 06:26:25;;;;;;;13.68;2.10;;;;;;;12.02;68.94;100740.13;4913762;29;20051;-70
2022/10/25 06:28:58;;;;;;;10.45;2.45;;;;;;;12.01;68.80;100739.28;4914705;29;20123;-71
2022/10/25 06:31:25;;;;;;;9.35;2.13;;;;;;;12.18;67.95;100742.81;4915662;29;20055;-71
2022/10/25 06:33:52;;;;;;;12.75;2.65;;;;;;;12.07;68.60;100745.81;4915396;29;20048;-71
2022/10/25 06:36:21;;;;;;;8.50;2.00;;;;;;;12.25;67.98;100749.19;4914298;29;20040;-72
2022/10/25 06:38:49;;;;;;;9.73;2.22;;;;;;;12.17;68.04;100744.66;4914771;29;20524;-71
2022/10/25 06:41:19;;;;;;;5.40;1.92;;;;;;;12.20;68.33;100748.84;4915460;29;20051;-72
2022/10/25 06:43:46;;;;;;;8.23;2.20;;;;;;;12.19;68.11;100749.84;4914709;29;20056;-70
2022/10/25 06:46:23;;;;;;;9.63;2.30;;;;;;;12.29;67.87;100749.69;4915406;29;20070;-71
2022/10/25 06:48:51;;;;;;;12.38;2.40;;;;;;;12.51;67.21;100757.03;4914688;29;20052;-69
2022/10/25 06:51:18;;;;;;;17.13;3.65;;;;;;;12.43;67.35;100761.59;4910931;29;20128;-71
2022/10/25 06:53:45;;;;;;;10.02;2.88;;;;;;;12.50;67.27;100768.81;4915334;29;20055;-68
2022/10/25 06:56:13;;;;;;;11.52;2.67;;;;;;;12.48;67.52;100764.59;4915674;29;20055;-71
2022/10/25 06:58:40;;;;;;;9.35;2.50;;;;;;;12.60;67.14;100765.94;4915071;29;20044;-72
2022/10/25 07:01:11;;;;;;;8.68;1.95;;;;;;;12.47;67.25;100773.69;4914691;29;20481;-71
2022/10/25 07:03:39;;;;;;;10.75;2.70;;;;;;;12.66;66.77;100773.31;4914860;29;20070;-70
2022/10/25 07:06:13;;;;;;;10.90;2.45;;;;;;;12.63;66.65;100777.19;4915009;29;20058;-71
2022/10/25 07:08:42;;;;;;;19.00;2.75;;;;;;;12.44;67.05;100779.41;4914844;29;20048;-71
2022/10/25 07:11:13;;;;;;;12.23;2.63;;;;;;;12.52;67.29;100792.84;4915181;29;20044;-72
2022/10/25 07:13:40;;;;;;;;;;;;;;;12.51;67.12;100781.25;4915217;29;20044;-71
2022/10/25 07:16:10;;;;;;;12.25;2.40;;;;;;;12.71;66.54;100781.69;4914889;29;20383;-71
2022/10/25 07:18:36;;;;;;;10.25;2.30;;;;;;;12.67;67.17;100796.53;4914747;29;20048;-72
2022/10/25 07:21:09;;;;;;;12.20;2.78;;;;;;;12.85;66.58;100786.38;4915100;29;20060;-70
2022/10/25 07:23:40;;;;;;;13.05;2.70;;;;;;;12.77;66.72;100789.13;4914374;29;20074;-70
2022/10/25 07:26:11;;;;;;;7.30;1.67;;;;;;;13.09;65.63;100782.75;4914699;29;20044;-72
2022/10/25 07:28:39;;;;;;;7.68;2.75;;;;;;;12.88;66.37;100791.44;4913382;29;20054;-71
2022/10/25 07:31:06;;;;;;;15.38;3.63;;;;;;;12.88;66.49;100788.75;4914583;29;20485;-71
2022/10/25 07:33:33;;;;;;;12.60;2.50;;;;;;;12.68;67.04;100798.19;4913792;29;20048;-71
2022/10/25 07:35:59;;;;;;;10.75;2.50;;;;;;;12.79;66.87;100797.84;4914191;29;20064;-72
2022/10/25 07:38:37;;;;;;;17.73;3.05;;;;;;;12.76;66.92;100800.88;4913557;29;20123;-70
2022/10/25 07:41:04;;;;;;;13.02;3.05;;;;;;;13.01;65.80;100803.53;4914144;29;20076;-70
2022/10/25 07:43:31;;;;;;;12.75;2.85;;;;;;;12.97;66.23;100799.47;4914208;29;20473;-71
2022/10/25 07:45:57;;;;;;;14.63;3.85;;;;;;;13.04;65.90;100809.41;4914565;29;20048;-71
2022/10/25 07:48:23;;;;;;;8.23;2.28;;;;;;;13.35;65.07;100808.56;4913733;29;20059;-70
2022/10/25 07:50:50;;;;;;;12.82;3.25;;;;;;;13.13;65.71;100804.81;4914006;29;20394;-72
2022/10/25 07:53:17;;;;;;;10.23;2.78;;;;;;;13.14;65.31;100809.16;4914333;29;20051;-70
2022/10/25 07:55:54;;;;;;;9.80;2.72;;;;;;;13.15;65.42;100808.19;4914192;29;20512;-72
2022/10/25 07:58:21;;;;;;;12.00;3.05;;;;;;;13.41;64.96;100812.41;4913752;29;20044;-71
2022/10/25 08:00:47;;;;;;;10.52;2.90;;;;;;;13.08;65.54;100802.66;4896464;29;20047;-70
2022/10/25 08:03:15;;;;;;;8.98;2.70;;;;;;;12.96;66.07;100808.56;4914683;29;20048;-71
2022/10/25 08:05:44;;;;;;;14.75;3.22;;;;;;;12.96;65.89;100808.56;4914192;29;20075;-71
2022/10/25 08:08:11;;;;;;;11.23;2.38;;;;;;;13.28;65.24;100811.16;4914229;29;20055;-70
2022/10/25 08:10:37;;;;;;;13.30;2.88;;;;;;;13.27;64.93;100817.53;4913969;29;20072;-71
2022/10/25 08:13:04;;;;;;;8.93;2.38;;;;;;;13.30;64.99;100814.50;4913936;29;20056;-71
2022/10/25 08:15:30;;;;;;;10.48;2.10;;;;;;;13.24;64.55;100817.88;4913745;29;20048;-71
2022/10/25 08:18:01;;;;;;;9.93;1.55;;;;;;;13.44;63.94;100814.75;4913751;29;20055;-71
2022/10/25 08:20:28;;;;;;;9.32;2.20;;;;;;;12.96;65.24;100809.41;4914334;29;20518;-70
2022/10/25 08:23:14;;;;;;;13.80;2.55;;;;;;;13.05;64.92;100823.69;4913628;29;20052;-71
2022/10/25 08:25:41;;;;;;;10.93;2.65;;;;;;;12.95;65.49;100813.13;4913215;29;20051;-70
2022/10/25 08:28:08;;;;;;;11.43;3.10;;;;;;;12.72;66.71;100812.97;4914083;29;20052;-71
2022/10/25 08:30:34;;;;;;;12.85;2.90;;;;;;;12.80;66.95;100821.09;4913935;29;20052;-70
2022/10/25 08:33:01;;;;;;;12.38;2.40;;;;;;;12.74;67.18;100813.69;4905422;29;20056;-72
2022/10/25 08:35:27;;;;;;;8.85;2.05;;;;;;;12.75;67.18;100809.97;4913742;29;20413;-71
2022/10/25 08:37:54;;;;;;;8.93;2.30;;;;;;;12.72;67.73;100823.75;4913544;29;20055;-71
2022/10/25 08:40:25;;;;;;;13.45;2.42;;;;;;;12.92;66.66;100818.03;4913896;29;20048;-68
2022/10/25 08:43:14;;;;;;;13.82;2.90;;;;;;;12.99;66.86;100821.69;4914028;29;20048;-71
2022/10/25 08:45:52;;;;;;;11.75;1.92;;;;;;;12.92;67.14;100826.94;4913758;29;20060;-71
2022/10/25 08:48:25;;;;;;;7.95;2.05;;;;;;;13.13;66.36;100828.22;4913174;29;20119;-71
2022/10/25 08:50:56;;;;;;;9.60;2.42;;;;;;;13.15;66.49;100828.88;4915267;29;20157;-69
2022/10/25 08:53:29;;;;;;;17.02;2.50;;;;;;;13.06;67.00;100833.44;4917030;29;20417;-70
2022/10/25 08:55:56;;;;;;;10.05;2.63;;;;;;;12.97;67.56;100829.09;4917180;29;20048;-71
2022/10/25 08:58:48;;;;;;;14.50;2.85;;;;;;;13.61;65.93;100829.81;4917062;29;20063;-69
2022/10/25 09:01:23;;;;;;;12.75;2.38;;;;;;;13.46;66.50;100835.13;4917125;29;20119;-71
2022/10/25 09:03:50;;;;;;;14.13;2.55;;;;;;;13.37;66.86;100835.34;4916981;29;20043;-71
2022/10/25 09:06:54;;;;;;;10.70;2.30;;;;;;;13.44;66.19;100831.75;4916831;29;20040;-72
2022/10/25 09:09:33;;;;;;;15.75;2.63;;;;;;;13.79;65.28;100838.50;4879655;29;20052;-70
2022/10/25 09:12:15;;;;;;;13.77;2.97;;;;;;;13.54;65.75;100834.25;4879322;29;20409;-71
2022/10/25 09:15:28;;;;;;;21.13;3.17;;;;;;;13.47;66.48;100846.75;4879172;29;20410;-72
2022/10/25 09:17:54;;;;;;;15.02;3.47;;;;;;;13.54;65.65;100843.16;4850547;29;20049;-70
2022/10/25 09:20:28;;;;;;;16.83;3.55;;;;;;;13.92;64.79;100840.63;4878856;29;20045;-71
2022/10/25 09:23:07;;;;;;;11.50;2.95;;;;;;;14.22;63.79;100836.16;4878801;29;20072;-71
2022/10/25 09:25:46;;;;;;;23.55;3.45;;;;;;;13.97;64.33;100845.47;4878073;29;20494;-72
2022/10/25 09:28:23;;;;;;;15.70;2.33;;;;;;;14.66;61.68;100850.78;4879223;29;20056;-71
2022/10/25 09:30:56;;;;;;;7.05;2.20;;;;;;;14.88;61.04;100851.78;4878845;29;20056;-70
2022/10/25 09:33:29;;;;;;;11.75;3.42;;;;;;;15.77;58.61;100848.97;4879435;29;20049;-71
2022/10/25 09:35:57;;;;;;;10.93;2.17;;;;;;;15.89;57.91;100853.72;4878921;29;20052;-71
2022/10/25 09:38:33;;;;;;;13.18;2.50;;;;;;;16.63;55.59;100853.34;4878932;29;20053;-71
2022/10/25 09:41:15;;;;;;;10.80;2.28;;;;;;;17.44;53.25;100854.66;4878718;29;20071;-70
2022/10/25 09:43:44;;;;;;;;;;;;;;;17.71;51.93;100853.72;4878619;29;20045;-70
2022/10/25 09:46:17;;;;;;;18.33;2.28;;;;;;;17.59;52.19;100858.91;4878784;29;19924;-70
2022/10/25 09:48:59;;;;;;;12.55;2.33;;;;;;;16.86;53.03;100852.28;4877164;29;20056;-69
2022/10/25 09:51:34;;;;;;;16.50;2.63;;;;;;;16.86;53.46;100857.69;4878856;29;20127;-71
2022/10/25 09:54:12;;;;;;;8.75;2.08;;;;;;;16.84;53.00;100863.28;4874364;29;20049;-69
2022/10/25 09:56:39;;;;;;;10.82;2.08;;;;;;;17.01;52.56;100863.81;4878450;29;20536;-71
2022/10/25 09:59:07;;;;;;;16.83;2.13;;;;;;;16.50;54.03;100869.50;4877844;29;20498;-71
2022/10/25 10:01:37;;;;;;;13.00;2.50;;;;;;;15.95;55.34;100862.91;4878002;29;20482;-71
2022/10/25 10:04:23;;;;;;;13.00;2.17;;;;;;;15.73;56.07;100875.56;4878552;29;20075;-71
2022/10/25 10:06:52;;;;;;;7.85;2.00;;;;;;;15.40;57.14;100867.88;4878835;29;20052;-71
2022/10/25 10:09:19;;;;;;;9.30;2.03;;;;;;;15.49;57.02;100866.72;4916325;29;20147;-72
2022/10/25 10:11:47;;;;;;;12.13;2.33;;;;;;;15.16;58.16;100877.13;4915332;29;20051;-71
2022/10/25 10:14:25;;;;;;;9.85;2.13;;;;;;;15.14;58.15;100884.56;4914432;29;20499;-72
2022/10/25 10:16:55;;;;;;;8.63;2.00;;;;;;;15.52;56.91;100879.03;4915638;29;20075;-72
2022/10/25 10:19:28;;;;;;;14.93;1.90;;;;;;;15.34;57.61;100878.59;4914869;29;20063;-71
2022/10/25 10:21:59;;;;;;;15.05;2.40;;;;;;;14.92;58.43;100886.34;4915353;29;20136;-70
2022/10/25 10:24:29;;;;;;;13.03;2.17;;;;;;;15.07;58.21;100883.63;4913935;29;20044;-71
2022/10/25 10:27:06;;;;;;;10.45;2.05;;;;;;;14.73;59.42;100887.69;4915233;29;20493;-70
2022/10/25 10:29:38;;;;;;;16.27;2.72;;;;;;;14.38;60.38;100888.31;4915338;29;20134;-72
2022/10/25 10:32:21;;;;;;;7.00;2.00;;;;;;;14.39;60.34;100887.28;4913919;29;20060;-71
2022/10/25 10:34:53;;;;;;;12.07;3.05;;;;;;;14.48;60.12;100889.75;4915394;29;20059;-71
2022/10/25 10:37:22;;;;;;;13.85;2.47;;;;;;;14.38;60.76;100891.84;4915504;29;20052;-71
2022/10/25 10:39:52;;;;;;;14.00;2.55;;;;;;;14.36;60.75;100884.94;4915104;29;20048;-71
2022/10/25 10:42:31;;;;;;;7.18;2.15;;;;;;;14.40;60.45;100889.00;4914822;29;20473;-72
2022/10/25 10:45:03;;;;;;;13.75;2.67;;;;;;;14.39;60.75;100898.09;4913506;29;20058;-71
2022/10/25 10:47:35;;;;;;;12.20;2.20;;;;;;;14.48;60.22;100894.31;4914733;29;20055;-72
2022/10/25 10:50:12;;;;;;;7.47;2.15;;;;;;;14.45;60.23;100892.81;4914108;29;20056;-70
2022/10/25 10:52:43;;;;;;;9.65;2.53;;;;;;;14.37;60.54;100894.75;4914702;29;20048;-70
2022/10/25 10:55:34;;;;;;;10.93;1.97;;;;;;;14.44;60.17;100893.84;4910352;29;20048;-71
2022/10/25 10:58:04;;;;;;;9.60;1.95;;;;;;;15.03;58.72;100897.72;4913822;29;20058;-71
2022/10/25 11:00:32;;;;;;;9.82;2.10;;;;;;;15.00;58.73;100893.50;4914192;29;20056;-68
2022/10/25 11:02:59;;;;;;;14.88;2.60;;;;;;;15.41;56.73;100902.00;4914636;29;20083;-72
2022/10/25 11:05:30;;;;;;;9.75;2.00;;;;;;;15.27;56.85;100886.63;4914210;29;20484;-70
2022/10/25 11:08:16;;;;;;;5.40;1.17;;;;;;;15.79;55.07;100892.94;4914372;29;20056;-70
2022/10/25 11:10:42;;;;;;;10.07;2.03;;;;;;;16.05;54.47;100892.34;4913338;29;20401;-71
2022/10/25 11:13:19;;;;;;;15.13;2.70;;;;;;;17.00;52.07;100888.44;4913943;29;20524;-71
2022/10/25 11:16:03;;;;;;;19.60;2.33;;;;;;;17.51;50.87;100897.09;4914335;29;20048;-71
2022/10/25 11:18:41;;;;;;;11.30;2.22;;;;;;;17.94;48.79;100894.09;4914490;29;20405;-71
2022/10/25 11:21:24;;;;;;;19.10;2.35;;;;;;;17.70;48.93;100891.94;4914323;29;20048;-71
2022/10/25 11:24:13;;;;;;;11.60;2.17;;;;;;;18.05;48.15;100889.94;4914578;29;20071;-71
2022/10/25 11:27:18;;;;;;;13.60;2.42;;;;;;;18.06;48.36;100897.91;4914112;29;20048;-70
2022/10/25 11:29:47;;;;;;;11.32;2.13;;;;;;;18.06;47.99;100888.91;4866766;29;20044;-70
2022/10/25 11:32:19;;;;;;;15.93;2.28;;;;;;;18.39;46.44;100897.13;4913030;29;20079;-71
2022/10/25 11:34:52;;;;;;;9.45;2.20;;;;;;;18.41;46.09;100895.06;4914278;29;20050;-70
2022/10/25 11:37:28;;;;;;;13.10;2.13;;;;;;;18.55;45.55;100888.56;4913350;29;20512;-70
2022/10/25 11:40:15;;;;;;;14.27;2.67;;;;;;;18.65;45.04;100890.03;4914019;29;20481;-71
2022/10/25 11:43:03;;;;;;;14.25;2.42;;;;;;;18.40;45.89;100882.50;4913293;29;20071;-70